sensor_id;sensor_type;location;lat;lon;timestamp;P1;durP1;ratioP1;P2;durP2;ratioP2
21505;SDS011;10914;48.886;9.394;2023-07-16T00:00:55;72.63;;;68.77;;
21505;SDS011;10914;48.886;9.394;2023-07-16T00:03:20;70.13;;;66.40;;
21505;SDS011;10914;48.886;9.394;2023-07-16T00:05:45;63.00;;;59.78;;
21505;SDS011;10914;48.886;9.394;2023-07-16T00:08:14;84.18;;;79.97;;
21505;SDS011;10914;48.886;9.394;2023-07-16T00:10:39;135.40;;;129.33;;
21505;SDS011;10914;48.886;9.394;2023-07-16T00:13:09;126.60;;;120.83;;
21505;SDS011;10914;48.886;9.394;2023-07-16T00:15:45;66.60;;;63.25;;
21505;SDS011;10914;48.886;9.394;2023-07-16T00:18:10;65.03;;;61.93;;
21505;SDS011;10914;48.886;9.394;2023-07-16T00:20:35;55.90;;;53.00;;
21505;SDS011;10914;48.886;9.394;2023-07-16T00:23:01;70.83;;;67.37;;
21505;SDS011;10914;48.886;9.394;2023-07-16T00:25:26;64.87;;;61.57;;
21505;SDS011;10914;48.886;9.394;2023-07-16T00:27:51;72.60;;;69.18;;
21505;SDS011;10914;48.886;9.394;2023-07-16T00:30:16;78.68;;;75.05;;
21505;SDS011;10914;48.886;9.394;2023-07-16T00:32:41;79.20;;;75.50;;
21505;SDS011;10914;48.886;9.394;2023-07-16T00:35:07;67.67;;;64.50;;
21505;SDS011;10914;48.886;9.394;2023-07-16T00:37:33;52.00;;;49.50;;
21505;SDS011;10914;48.886;9.394;2023-07-16T00:39:58;70.70;;;67.38;;
21505;SDS011;10914;48.886;9.394;2023-07-16T00:42:23;71.33;;;67.73;;
21505;SDS011;10914;48.886;9.394;2023-07-16T00:44:48;105.13;;;100.27;;
21505;SDS011;10914;48.886;9.394;2023-07-16T00:47:14;152.95;;;146.20;;
21505;SDS011;10914;48.886;9.394;2023-07-16T00:49:39;83.10;;;79.25;;
21505;SDS011;10914;48.886;9.394;2023-07-16T00:52:04;103.30;;;98.70;;
21505;SDS011;10914;48.886;9.394;2023-07-16T00:54:30;48.53;;;46.15;;
21505;SDS011;10914;48.886;9.394;2023-07-16T00:56:56;95.18;;;90.85;;
21505;SDS011;10914;48.886;9.394;2023-07-16T00:59:21;99.53;;;95.00;;
21505;SDS011;10914;48.886;9.394;2023-07-16T01:01:46;58.28;;;55.42;;
21505;SDS011;10914;48.886;9.394;2023-07-16T01:04:11;63.57;;;60.50;;
21505;SDS011;10914;48.886;9.394;2023-07-16T01:06:41;59.17;;;56.33;;
21505;SDS011;10914;48.886;9.394;2023-07-16T01:09:07;91.53;;;87.35;;
21505;SDS011;10914;48.886;9.394;2023-07-16T01:11:33;72.57;;;69.25;;
21505;SDS011;10914;48.886;9.394;2023-07-16T01:14:00;58.65;;;55.53;;
21505;SDS011;10914;48.886;9.394;2023-07-16T01:16:25;63.85;;;60.90;;
21505;SDS011;10914;48.886;9.394;2023-07-16T01:18:51;44.40;;;42.28;;
21505;SDS011;10914;48.886;9.394;2023-07-16T01:21:18;50.22;;;47.70;;
21505;SDS011;10914;48.886;9.394;2023-07-16T01:23:50;160.77;;;153.43;;
21505;SDS011;10914;48.886;9.394;2023-07-16T01:26:47;106.05;;;101.43;;
21505;SDS011;10914;48.886;9.394;2023-07-16T01:29:21;84.47;;;80.72;;
21505;SDS011;10914;48.886;9.394;2023-07-16T01:31:50;83.68;;;79.85;;
21505;SDS011;10914;48.886;9.394;2023-07-16T01:34:16;79.18;;;75.45;;
21505;SDS011;10914;48.886;9.394;2023-07-16T01:36:42;86.60;;;82.57;;
21505;SDS011;10914;48.886;9.394;2023-07-16T01:39:07;83.18;;;79.43;;
21505;SDS011;10914;48.886;9.394;2023-07-16T01:41:32;81.10;;;77.23;;
21505;SDS011;10914;48.886;9.394;2023-07-16T01:43:57;63.43;;;60.17;;
21505;SDS011;10914;48.886;9.394;2023-07-16T01:46:23;93.05;;;88.68;;
21505;SDS011;10914;48.886;9.394;2023-07-16T01:48:48;69.63;;;66.25;;
21505;SDS011;10914;48.886;9.394;2023-07-16T01:51:13;68.70;;;65.40;;
21505;SDS011;10914;48.886;9.394;2023-07-16T01:53:39;99.95;;;95.43;;
21505;SDS011;10914;48.886;9.394;2023-07-16T01:56:04;54.53;;;51.90;;
21505;SDS011;10914;48.886;9.394;2023-07-16T01:58:29;58.93;;;56.13;;
21505;SDS011;10914;48.886;9.394;2023-07-16T02:00:54;58.67;;;55.83;;
21505;SDS011;10914;48.886;9.394;2023-07-16T02:03:20;70.15;;;66.85;;
21505;SDS011;10914;48.886;9.394;2023-07-16T02:05:45;63.13;;;60.20;;
21505;SDS011;10914;48.886;9.394;2023-07-16T02:08:10;58.25;;;55.47;;
21505;SDS011;10914;48.886;9.394;2023-07-16T02:10:35;57.80;;;54.93;;
21505;SDS011;10914;48.886;9.394;2023-07-16T02:13:00;69.13;;;65.95;;
21505;SDS011;10914;48.886;9.394;2023-07-16T02:15:26;77.85;;;74.18;;
21505;SDS011;10914;48.886;9.394;2023-07-16T02:17:51;59.20;;;56.43;;
21505;SDS011;10914;48.886;9.394;2023-07-16T02:20:16;44.70;;;42.50;;
21505;SDS011;10914;48.886;9.394;2023-07-16T02:22:41;50.20;;;47.88;;
21505;SDS011;10914;48.886;9.394;2023-07-16T02:25:06;69.87;;;66.57;;
21505;SDS011;10914;48.886;9.394;2023-07-16T02:27:32;98.47;;;93.90;;
21505;SDS011;10914;48.886;9.394;2023-07-16T02:29:57;54.17;;;51.63;;
21505;SDS011;10914;48.886;9.394;2023-07-16T02:32:22;85.90;;;81.82;;
21505;SDS011;10914;48.886;9.394;2023-07-16T02:34:48;47.45;;;45.20;;
21505;SDS011;10914;48.886;9.394;2023-07-16T02:37:13;54.00;;;51.40;;
21505;SDS011;10914;48.886;9.394;2023-07-16T02:39:38;32.30;;;30.70;;
21505;SDS011;10914;48.886;9.394;2023-07-16T02:42:03;30.35;;;28.90;;
21505;SDS011;10914;48.886;9.394;2023-07-16T02:44:29;24.73;;;23.35;;
21505;SDS011;10914;48.886;9.394;2023-07-16T02:46:54;23.93;;;22.53;;
21505;SDS011;10914;48.886;9.394;2023-07-16T02:49:20;26.00;;;24.60;;
21505;SDS011;10914;48.886;9.394;2023-07-16T02:51:45;23.60;;;22.40;;
21505;SDS011;10914;48.886;9.394;2023-07-16T02:54:10;23.60;;;22.37;;
21505;SDS011;10914;48.886;9.394;2023-07-16T02:56:35;22.87;;;21.47;;
21505;SDS011;10914;48.886;9.394;2023-07-16T02:59:00;22.57;;;21.37;;
21505;SDS011;10914;48.886;9.394;2023-07-16T03:01:25;22.03;;;20.77;;
21505;SDS011;10914;48.886;9.394;2023-07-16T03:03:51;22.27;;;20.97;;
21505;SDS011;10914;48.886;9.394;2023-07-16T03:06:16;24.90;;;23.70;;
21505;SDS011;10914;48.886;9.394;2023-07-16T03:08:41;22.27;;;21.15;;
21505;SDS011;10914;48.886;9.394;2023-07-16T03:11:06;24.85;;;23.48;;
21505;SDS011;10914;48.886;9.394;2023-07-16T03:13:31;22.50;;;21.20;;
21505;SDS011;10914;48.886;9.394;2023-07-16T03:15:57;22.80;;;21.47;;
21505;SDS011;10914;48.886;9.394;2023-07-16T03:18:22;24.73;;;23.00;;
21505;SDS011;10914;48.886;9.394;2023-07-16T03:20:47;21.55;;;20.45;;
21505;SDS011;10914;48.886;9.394;2023-07-16T03:23:13;23.97;;;22.63;;
21505;SDS011;10914;48.886;9.394;2023-07-16T03:25:38;30.75;;;28.90;;
21505;SDS011;10914;48.886;9.394;2023-07-16T03:28:03;30.07;;;28.20;;
21505;SDS011;10914;48.886;9.394;2023-07-16T03:30:30;26.50;;;25.02;;
21505;SDS011;10914;48.886;9.394;2023-07-16T03:32:55;33.20;;;31.35;;
21505;SDS011;10914;48.886;9.394;2023-07-16T03:35:20;31.80;;;30.13;;
21505;SDS011;10914;48.886;9.394;2023-07-16T03:37:45;29.33;;;27.93;;
21505;SDS011;10914;48.886;9.394;2023-07-16T03:40:14;30.45;;;28.88;;
21505;SDS011;10914;48.886;9.394;2023-07-16T03:42:40;29.85;;;28.00;;
21505;SDS011;10914;48.886;9.394;2023-07-16T03:45:05;47.53;;;45.10;;
21505;SDS011;10914;48.886;9.394;2023-07-16T03:47:30;40.15;;;37.95;;
21505;SDS011;10914;48.886;9.394;2023-07-16T03:49:55;27.30;;;25.67;;
21505;SDS011;10914;48.886;9.394;2023-07-16T03:52:21;27.07;;;25.70;;
21505;SDS011;10914;48.886;9.394;2023-07-16T03:54:46;26.23;;;24.73;;
21505;SDS011;10914;48.886;9.394;2023-07-16T03:57:11;43.70;;;41.57;;
21505;SDS011;10914;48.886;9.394;2023-07-16T03:59:36;38.10;;;36.25;;
21505;SDS011;10914;48.886;9.394;2023-07-16T04:02:01;36.03;;;34.30;;
21505;SDS011;10914;48.886;9.394;2023-07-16T04:04:26;37.00;;;35.17;;
21505;SDS011;10914;48.886;9.394;2023-07-16T04:06:52;32.73;;;30.90;;
21505;SDS011;10914;48.886;9.394;2023-07-16T04:09:17;24.93;;;23.63;;
21505;SDS011;10914;48.886;9.394;2023-07-16T04:11:42;22.37;;;21.10;;
21505;SDS011;10914;48.886;9.394;2023-07-16T04:14:07;23.83;;;22.27;;
21505;SDS011;10914;48.886;9.394;2023-07-16T04:16:32;24.70;;;23.50;;
21505;SDS011;10914;48.886;9.394;2023-07-16T04:18:57;27.10;;;25.67;;
21505;SDS011;10914;48.886;9.394;2023-07-16T04:21:23;28.30;;;26.70;;
21505;SDS011;10914;48.886;9.394;2023-07-16T04:23:48;28.60;;;27.07;;
21505;SDS011;10914;48.886;9.394;2023-07-16T04:26:13;23.73;;;22.30;;
21505;SDS011;10914;48.886;9.394;2023-07-16T04:28:38;24.23;;;22.80;;
21505;SDS011;10914;48.886;9.394;2023-07-16T04:31:04;22.90;;;21.60;;
21505;SDS011;10914;48.886;9.394;2023-07-16T04:33:29;23.03;;;21.70;;
21505;SDS011;10914;48.886;9.394;2023-07-16T04:35:54;32.37;;;30.73;;
21505;SDS011;10914;48.886;9.394;2023-07-16T04:38:19;39.07;;;37.07;;
21505;SDS011;10914;48.886;9.394;2023-07-16T04:40:45;37.33;;;35.47;;
21505;SDS011;10914;48.886;9.394;2023-07-16T04:43:10;29.93;;;28.23;;
21505;SDS011;10914;48.886;9.394;2023-07-16T04:45:35;42.85;;;40.53;;
21505;SDS011;10914;48.886;9.394;2023-07-16T04:48:00;31.90;;;30.33;;
21505;SDS011;10914;48.886;9.394;2023-07-16T04:50:26;30.20;;;28.57;;
21505;SDS011;10914;48.886;9.394;2023-07-16T04:52:51;31.08;;;29.30;;
21505;SDS011;10914;48.886;9.394;2023-07-16T04:55:16;23.67;;;22.37;;
21505;SDS011;10914;48.886;9.394;2023-07-16T04:57:41;23.75;;;22.33;;
21505;SDS011;10914;48.886;9.394;2023-07-16T05:00:06;25.83;;;24.30;;
21505;SDS011;10914;48.886;9.394;2023-07-16T05:02:33;23.25;;;21.95;;
21505;SDS011;10914;48.886;9.394;2023-07-16T05:04:58;30.50;;;28.80;;
21505;SDS011;10914;48.886;9.394;2023-07-16T05:07:23;34.00;;;32.20;;
21505;SDS011;10914;48.886;9.394;2023-07-16T05:09:48;29.37;;;27.63;;
21505;SDS011;10914;48.886;9.394;2023-07-16T05:12:13;30.20;;;28.23;;
21505;SDS011;10914;48.886;9.394;2023-07-16T05:14:45;27.98;;;26.52;;
21505;SDS011;10914;48.886;9.394;2023-07-16T05:17:11;23.77;;;22.42;;
21505;SDS011;10914;48.886;9.394;2023-07-16T05:19:36;22.10;;;20.80;;
21505;SDS011;10914;48.886;9.394;2023-07-16T05:22:01;23.57;;;22.13;;
21505;SDS011;10914;48.886;9.394;2023-07-16T05:24:27;25.00;;;23.75;;
21505;SDS011;10914;48.886;9.394;2023-07-16T05:26:52;24.57;;;23.20;;
21505;SDS011;10914;48.886;9.394;2023-07-16T05:29:19;25.00;;;23.67;;
21505;SDS011;10914;48.886;9.394;2023-07-16T05:31:44;24.67;;;23.37;;
21505;SDS011;10914;48.886;9.394;2023-07-16T05:34:11;25.30;;;23.65;;
21505;SDS011;10914;48.886;9.394;2023-07-16T05:36:36;24.10;;;22.57;;
21505;SDS011;10914;48.886;9.394;2023-07-16T05:39:01;24.97;;;23.57;;
21505;SDS011;10914;48.886;9.394;2023-07-16T05:41:26;22.93;;;21.53;;
21505;SDS011;10914;48.886;9.394;2023-07-16T05:43:51;24.47;;;23.17;;
21505;SDS011;10914;48.886;9.394;2023-07-16T05:46:17;22.90;;;21.60;;
21505;SDS011;10914;48.886;9.394;2023-07-16T05:48:42;23.98;;;22.50;;
21505;SDS011;10914;48.886;9.394;2023-07-16T05:51:07;25.05;;;23.45;;
21505;SDS011;10914;48.886;9.394;2023-07-16T05:53:32;23.47;;;22.17;;
21505;SDS011;10914;48.886;9.394;2023-07-16T05:55:57;29.07;;;27.57;;
21505;SDS011;10914;48.886;9.394;2023-07-16T05:58:23;22.83;;;21.42;;
21505;SDS011;10914;48.886;9.394;2023-07-16T06:00:48;23.47;;;22.17;;
21505;SDS011;10914;48.886;9.394;2023-07-16T06:03:13;23.00;;;21.60;;
21505;SDS011;10914;48.886;9.394;2023-07-16T06:05:38;23.15;;;21.95;;
21505;SDS011;10914;48.886;9.394;2023-07-16T06:08:03;34.55;;;32.65;;
21505;SDS011;10914;48.886;9.394;2023-07-16T06:10:29;24.03;;;22.63;;
21505;SDS011;10914;48.886;9.394;2023-07-16T06:12:54;23.80;;;22.40;;
21505;SDS011;10914;48.886;9.394;2023-07-16T06:15:19;22.50;;;21.30;;
21505;SDS011;10914;48.886;9.394;2023-07-16T06:17:44;27.15;;;25.25;;
21505;SDS011;10914;48.886;9.394;2023-07-16T06:20:09;27.93;;;26.33;;
21505;SDS011;10914;48.886;9.394;2023-07-16T06:22:35;25.77;;;24.15;;
21505;SDS011;10914;48.886;9.394;2023-07-16T06:25:00;28.93;;;27.43;;
21505;SDS011;10914;48.886;9.394;2023-07-16T06:27:25;29.40;;;27.90;;
21505;SDS011;10914;48.886;9.394;2023-07-16T06:29:50;22.75;;;21.45;;
21505;SDS011;10914;48.886;9.394;2023-07-16T06:32:16;20.27;;;19.27;;
21505;SDS011;10914;48.886;9.394;2023-07-16T06:34:41;20.63;;;19.42;;
21505;SDS011;10914;48.886;9.394;2023-07-16T06:37:06;19.23;;;18.13;;
21505;SDS011;10914;48.886;9.394;2023-07-16T06:39:31;22.37;;;20.80;;
21505;SDS011;10914;48.886;9.394;2023-07-16T06:41:57;27.35;;;25.88;;
21505;SDS011;10914;48.886;9.394;2023-07-16T06:44:22;19.88;;;18.88;;
21505;SDS011;10914;48.886;9.394;2023-07-16T06:46:48;20.08;;;18.75;;
21505;SDS011;10914;48.886;9.394;2023-07-16T06:49:13;19.77;;;18.50;;
21505;SDS011;10914;48.886;9.394;2023-07-16T06:51:38;20.73;;;19.57;;
21505;SDS011;10914;48.886;9.394;2023-07-16T06:54:03;26.80;;;25.40;;
21505;SDS011;10914;48.886;9.394;2023-07-16T06:56:28;23.80;;;22.47;;
21505;SDS011;10914;48.886;9.394;2023-07-16T06:58:53;19.30;;;18.20;;
21505;SDS011;10914;48.886;9.394;2023-07-16T07:01:19;18.60;;;17.50;;
21505;SDS011;10914;48.886;9.394;2023-07-16T07:03:44;19.50;;;18.23;;
21505;SDS011;10914;48.886;9.394;2023-07-16T07:06:09;19.43;;;18.30;;
21505;SDS011;10914;48.886;9.394;2023-07-16T07:08:36;21.05;;;19.55;;
21505;SDS011;10914;48.886;9.394;2023-07-16T07:11:01;18.85;;;17.77;;
21505;SDS011;10914;48.886;9.394;2023-07-16T07:13:26;18.40;;;17.37;;
21505;SDS011;10914;48.886;9.394;2023-07-16T07:15:51;18.40;;;17.30;;
21505;SDS011;10914;48.886;9.394;2023-07-16T07:18:16;18.15;;;17.13;;
21505;SDS011;10914;48.886;9.394;2023-07-16T07:20:41;19.00;;;17.83;;
21505;SDS011;10914;48.886;9.394;2023-07-16T07:23:07;19.40;;;18.10;;
21505;SDS011;10914;48.886;9.394;2023-07-16T07:25:32;19.70;;;18.45;;
21505;SDS011;10914;48.886;9.394;2023-07-16T07:27:57;20.47;;;19.37;;
21505;SDS011;10914;48.886;9.394;2023-07-16T07:30:22;19.70;;;18.60;;
21505;SDS011;10914;48.886;9.394;2023-07-16T07:32:48;19.70;;;18.23;;
21505;SDS011;10914;48.886;9.394;2023-07-16T07:35:13;19.20;;;18.20;;
21505;SDS011;10914;48.886;9.394;2023-07-16T07:37:38;19.55;;;18.45;;
21505;SDS011;10914;48.886;9.394;2023-07-16T07:40:03;21.47;;;20.20;;
21505;SDS011;10914;48.886;9.394;2023-07-16T07:42:29;21.83;;;20.63;;
21505;SDS011;10914;48.886;9.394;2023-07-16T07:44:54;20.80;;;19.58;;
21505;SDS011;10914;48.886;9.394;2023-07-16T07:47:19;21.17;;;19.77;;
21505;SDS011;10914;48.886;9.394;2023-07-16T07:49:45;20.70;;;19.45;;
21505;SDS011;10914;48.886;9.394;2023-07-16T07:52:10;19.00;;;17.80;;
21505;SDS011;10914;48.886;9.394;2023-07-16T07:54:35;22.20;;;20.97;;
21505;SDS011;10914;48.886;9.394;2023-07-16T07:57:01;20.70;;;19.43;;
21505;SDS011;10914;48.886;9.394;2023-07-16T07:59:30;21.35;;;19.92;;
21505;SDS011;10914;48.886;9.394;2023-07-16T08:01:56;22.23;;;20.85;;
21505;SDS011;10914;48.886;9.394;2023-07-16T08:04:21;20.33;;;19.13;;
21505;SDS011;10914;48.886;9.394;2023-07-16T08:06:46;20.60;;;19.43;;
21505;SDS011;10914;48.886;9.394;2023-07-16T08:09:11;21.10;;;19.67;;
21505;SDS011;10914;48.886;9.394;2023-07-16T08:11:37;19.90;;;18.70;;
21505;SDS011;10914;48.886;9.394;2023-07-16T08:14:02;20.30;;;19.07;;
21505;SDS011;10914;48.886;9.394;2023-07-16T08:16:27;20.13;;;18.80;;
21505;SDS011;10914;48.886;9.394;2023-07-16T08:18:52;19.40;;;18.30;;
21505;SDS011;10914;48.886;9.394;2023-07-16T08:21:17;19.03;;;17.87;;
21505;SDS011;10914;48.886;9.394;2023-07-16T08:23:45;19.95;;;18.70;;
21505;SDS011;10914;48.886;9.394;2023-07-16T08:26:10;21.25;;;19.80;;
21505;SDS011;10914;48.886;9.394;2023-07-16T08:28:37;19.88;;;18.88;;
21505;SDS011;10914;48.886;9.394;2023-07-16T08:31:02;19.97;;;18.73;;
21505;SDS011;10914;48.886;9.394;2023-07-16T08:33:28;19.73;;;18.42;;
21505;SDS011;10914;48.886;9.394;2023-07-16T08:35:53;18.33;;;17.33;;
21505;SDS011;10914;48.886;9.394;2023-07-16T08:38:18;18.70;;;17.70;;
21505;SDS011;10914;48.886;9.394;2023-07-16T08:40:43;18.58;;;17.55;;
21505;SDS011;10914;48.886;9.394;2023-07-16T08:43:11;19.45;;;18.23;;
21505;SDS011;10914;48.886;9.394;2023-07-16T08:45:40;19.30;;;18.10;;
21505;SDS011;10914;48.886;9.394;2023-07-16T08:48:07;19.10;;;18.02;;
21505;SDS011;10914;48.886;9.394;2023-07-16T08:50:33;19.20;;;18.00;;
21505;SDS011;10914;48.886;9.394;2023-07-16T08:53:00;21.23;;;19.92;;
21505;SDS011;10914;48.886;9.394;2023-07-16T08:55:25;20.48;;;19.17;;
21505;SDS011;10914;48.886;9.394;2023-07-16T08:57:50;18.55;;;17.50;;
21505;SDS011;10914;48.886;9.394;2023-07-16T09:00:16;18.97;;;17.57;;
21505;SDS011;10914;48.886;9.394;2023-07-16T09:02:41;18.42;;;17.33;;
21505;SDS011;10914;48.886;9.394;2023-07-16T09:05:07;18.77;;;17.60;;
21505;SDS011;10914;48.886;9.394;2023-07-16T09:07:33;18.77;;;17.67;;
21505;SDS011;10914;48.886;9.394;2023-07-16T09:10:00;18.23;;;17.23;;
21505;SDS011;10914;48.886;9.394;2023-07-16T09:12:25;20.13;;;19.13;;
21505;SDS011;10914;48.886;9.394;2023-07-16T09:14:51;19.45;;;18.35;;
21505;SDS011;10914;48.886;9.394;2023-07-16T09:17:22;20.33;;;19.17;;
21505;SDS011;10914;48.886;9.394;2023-07-16T09:19:48;18.83;;;17.73;;
21505;SDS011;10914;48.886;9.394;2023-07-16T09:22:14;17.80;;;16.70;;
21505;SDS011;10914;48.886;9.394;2023-07-16T09:24:43;18.55;;;17.45;;
21505;SDS011;10914;48.886;9.394;2023-07-16T09:27:10;17.33;;;16.35;;
21505;SDS011;10914;48.886;9.394;2023-07-16T09:29:37;18.05;;;17.00;;
21505;SDS011;10914;48.886;9.394;2023-07-16T09:32:03;17.95;;;16.85;;
21505;SDS011;10914;48.886;9.394;2023-07-16T09:34:28;18.42;;;17.25;;
21505;SDS011;10914;48.886;9.394;2023-07-16T09:36:54;18.55;;;17.55;;
21505;SDS011;10914;48.886;9.394;2023-07-16T09:39:19;18.58;;;17.48;;
21505;SDS011;10914;48.886;9.394;2023-07-16T09:41:48;17.80;;;16.70;;
21505;SDS011;10914;48.886;9.394;2023-07-16T09:44:13;19.00;;;17.85;;
21505;SDS011;10914;48.886;9.394;2023-07-16T09:46:39;18.03;;;17.03;;
21505;SDS011;10914;48.886;9.394;2023-07-16T09:49:04;17.58;;;16.63;;
21505;SDS011;10914;48.886;9.394;2023-07-16T09:51:29;18.03;;;17.03;;
21505;SDS011;10914;48.886;9.394;2023-07-16T09:53:55;17.92;;;16.92;;
21505;SDS011;10914;48.886;9.394;2023-07-16T09:56:20;17.85;;;16.88;;
21505;SDS011;10914;48.886;9.394;2023-07-16T09:58:46;18.10;;;17.00;;
21505;SDS011;10914;48.886;9.394;2023-07-16T10:01:17;17.90;;;16.80;;
21505;SDS011;10914;48.886;9.394;2023-07-16T10:03:51;18.60;;;17.40;;
21505;SDS011;10914;48.886;9.394;2023-07-16T10:06:16;18.17;;;17.08;;
21505;SDS011;10914;48.886;9.394;2023-07-16T10:08:48;18.05;;;17.05;;
21505;SDS011;10914;48.886;9.394;2023-07-16T10:11:17;18.23;;;17.13;;
21505;SDS011;10914;48.886;9.394;2023-07-16T10:13:42;18.05;;;16.95;;
21505;SDS011;10914;48.886;9.394;2023-07-16T10:16:07;18.13;;;16.92;;
21505;SDS011;10914;48.886;9.394;2023-07-16T10:18:35;18.38;;;17.38;;
21505;SDS011;10914;48.886;9.394;2023-07-16T10:23:36;18.13;;;17.07;;
21505;SDS011;10914;48.886;9.394;2023-07-16T10:26:01;18.02;;;16.92;;
21505;SDS011;10914;48.886;9.394;2023-07-16T10:28:30;17.30;;;16.40;;
21505;SDS011;10914;48.886;9.394;2023-07-16T10:30:56;17.17;;;16.17;;
21505;SDS011;10914;48.886;9.394;2023-07-16T10:33:21;16.90;;;16.00;;
21505;SDS011;10914;48.886;9.394;2023-07-16T10:35:46;17.43;;;16.33;;
21505;SDS011;10914;48.886;9.394;2023-07-16T10:38:11;17.50;;;16.50;;
21505;SDS011;10914;48.886;9.394;2023-07-16T10:40:40;17.55;;;16.40;;
21505;SDS011;10914;48.886;9.394;2023-07-16T10:43:06;16.98;;;16.08;;
21505;SDS011;10914;48.886;9.394;2023-07-16T10:45:31;17.40;;;16.40;;
21505;SDS011;10914;48.886;9.394;2023-07-16T10:47:56;16.97;;;15.97;;
21505;SDS011;10914;48.886;9.394;2023-07-16T10:50:21;18.70;;;17.37;;
21505;SDS011;10914;48.886;9.394;2023-07-16T10:52:50;16.80;;;15.80;;
21505;SDS011;10914;48.886;9.394;2023-07-16T10:55:15;16.48;;;15.57;;
21505;SDS011;10914;48.886;9.394;2023-07-16T10:57:40;16.97;;;15.90;;
21505;SDS011;10914;48.886;9.394;2023-07-16T11:00:06;17.73;;;16.63;;
21505;SDS011;10914;48.886;9.394;2023-07-16T11:02:38;18.13;;;17.13;;
21505;SDS011;10914;48.886;9.394;2023-07-16T11:05:05;18.02;;;17.02;;
21505;SDS011;10914;48.886;9.394;2023-07-16T11:07:30;16.92;;;16.02;;
21505;SDS011;10914;48.886;9.394;2023-07-16T11:09:55;17.60;;;16.60;;
21505;SDS011;10914;48.886;9.394;2023-07-16T11:12:21;17.45;;;16.55;;
21505;SDS011;10914;48.886;9.394;2023-07-16T11:14:51;18.00;;;16.80;;
21505;SDS011;10914;48.886;9.394;2023-07-16T11:17:17;17.23;;;16.13;;
21505;SDS011;10914;48.886;9.394;2023-07-16T11:19:46;17.95;;;16.83;;
21505;SDS011;10914;48.886;9.394;2023-07-16T11:22:13;18.58;;;17.58;;
21505;SDS011;10914;48.886;9.394;2023-07-16T11:27:16;18.23;;;17.23;;
21505;SDS011;10914;48.886;9.394;2023-07-16T11:29:45;21.52;;;20.30;;
21505;SDS011;10914;48.886;9.394;2023-07-16T11:32:11;18.60;;;17.60;;
21505;SDS011;10914;48.886;9.394;2023-07-16T11:34:36;16.70;;;15.70;;
21505;SDS011;10914;48.886;9.394;2023-07-16T11:37:08;16.63;;;15.73;;
21505;SDS011;10914;48.886;9.394;2023-07-16T11:39:34;15.68;;;14.77;;
21505;SDS011;10914;48.886;9.394;2023-07-16T11:41:59;15.37;;;14.57;;
21505;SDS011;10914;48.886;9.394;2023-07-16T11:44:24;15.17;;;14.27;;
21505;SDS011;10914;48.886;9.394;2023-07-16T11:46:49;16.23;;;15.23;;
21505;SDS011;10914;48.886;9.394;2023-07-16T11:49:14;16.50;;;15.60;;
21505;SDS011;10914;48.886;9.394;2023-07-16T11:51:40;19.77;;;18.37;;
21505;SDS011;10914;48.886;9.394;2023-07-16T11:54:05;17.90;;;16.97;;
21505;SDS011;10914;48.886;9.394;2023-07-16T11:56:30;21.98;;;20.80;;
21505;SDS011;10914;48.886;9.394;2023-07-16T11:58:55;16.40;;;15.50;;
21505;SDS011;10914;48.886;9.394;2023-07-16T12:01:20;18.77;;;17.77;;
21505;SDS011;10914;48.886;9.394;2023-07-16T12:03:45;17.17;;;16.17;;
21505;SDS011;10914;48.886;9.394;2023-07-16T12:06:10;17.20;;;16.30;;
21505;SDS011;10914;48.886;9.394;2023-07-16T12:08:36;16.00;;;15.00;;
21505;SDS011;10914;48.886;9.394;2023-07-16T12:11:01;15.70;;;14.70;;
21505;SDS011;10914;48.886;9.394;2023-07-16T12:13:26;16.23;;;15.30;;
21505;SDS011;10914;48.886;9.394;2023-07-16T12:15:51;16.20;;;15.10;;
21505;SDS011;10914;48.886;9.394;2023-07-16T12:18:16;14.73;;;13.82;;
21505;SDS011;10914;48.886;9.394;2023-07-16T12:20:41;15.02;;;14.15;;
21505;SDS011;10914;48.886;9.394;2023-07-16T12:23:07;16.53;;;15.50;;
21505;SDS011;10914;48.886;9.394;2023-07-16T12:25:32;14.60;;;13.80;;
21505;SDS011;10914;48.886;9.394;2023-07-16T12:27:57;14.70;;;13.70;;
21505;SDS011;10914;48.886;9.394;2023-07-16T12:30:23;15.07;;;14.25;;
21505;SDS011;10914;48.886;9.394;2023-07-16T12:32:48;14.85;;;14.05;;
21505;SDS011;10914;48.886;9.394;2023-07-16T12:35:13;15.17;;;14.27;;
21505;SDS011;10914;48.886;9.394;2023-07-16T12:37:39;14.57;;;13.68;;
21505;SDS011;10914;48.886;9.394;2023-07-16T12:40:04;14.93;;;14.03;;
21505;SDS011;10914;48.886;9.394;2023-07-16T12:42:29;14.63;;;13.85;;
21505;SDS011;10914;48.886;9.394;2023-07-16T12:44:55;13.93;;;13.23;;
21505;SDS011;10914;48.886;9.394;2023-07-16T12:47:20;14.40;;;13.50;;
21505;SDS011;10914;48.886;9.394;2023-07-16T12:49:45;14.10;;;13.30;;
21505;SDS011;10914;48.886;9.394;2023-07-16T12:52:10;14.73;;;13.93;;
21505;SDS011;10914;48.886;9.394;2023-07-16T12:54:35;14.13;;;13.23;;
21505;SDS011;10914;48.886;9.394;2023-07-16T12:57:01;14.47;;;13.50;;
21505;SDS011;10914;48.886;9.394;2023-07-16T12:59:26;14.18;;;13.40;;
21505;SDS011;10914;48.886;9.394;2023-07-16T13:01:51;14.27;;;13.47;;
21505;SDS011;10914;48.886;9.394;2023-07-16T13:04:16;14.13;;;13.33;;
21505;SDS011;10914;48.886;9.394;2023-07-16T13:06:41;14.67;;;13.87;;
21505;SDS011;10914;48.886;9.394;2023-07-16T13:09:07;14.63;;;13.93;;
21505;SDS011;10914;48.886;9.394;2023-07-16T13:11:32;15.03;;;14.10;;
21505;SDS011;10914;48.886;9.394;2023-07-16T13:13:57;14.07;;;13.27;;
21505;SDS011;10914;48.886;9.394;2023-07-16T13:16:22;14.53;;;13.73;;
21505;SDS011;10914;48.886;9.394;2023-07-16T13:18:47;14.40;;;13.67;;
21505;SDS011;10914;48.886;9.394;2023-07-16T13:21:13;14.38;;;13.57;;
21505;SDS011;10914;48.886;9.394;2023-07-16T13:23:38;14.23;;;13.53;;
21505;SDS011;10914;48.886;9.394;2023-07-16T13:26:03;14.30;;;13.53;;
21505;SDS011;10914;48.886;9.394;2023-07-16T13:28:28;15.03;;;14.13;;
21505;SDS011;10914;48.886;9.394;2023-07-16T13:30:53;14.27;;;13.47;;
21505;SDS011;10914;48.886;9.394;2023-07-16T13:33:19;14.40;;;13.53;;
21505;SDS011;10914;48.886;9.394;2023-07-16T13:35:44;13.98;;;13.27;;
21505;SDS011;10914;48.886;9.394;2023-07-16T13:38:09;14.57;;;13.67;;
21505;SDS011;10914;48.886;9.394;2023-07-16T13:40:35;14.17;;;13.37;;
21505;SDS011;10914;48.886;9.394;2023-07-16T13:43:00;14.50;;;13.60;;
21505;SDS011;10914;48.886;9.394;2023-07-16T13:45:25;13.73;;;12.87;;
21505;SDS011;10914;48.886;9.394;2023-07-16T13:47:50;14.10;;;13.30;;
21505;SDS011;10914;48.886;9.394;2023-07-16T13:50:20;14.60;;;13.68;;
21505;SDS011;10914;48.886;9.394;2023-07-16T13:52:45;14.47;;;13.67;;
21505;SDS011;10914;48.886;9.394;2023-07-16T13:55:10;13.97;;;13.27;;
21505;SDS011;10914;48.886;9.394;2023-07-16T13:57:35;14.03;;;13.30;;
21505;SDS011;10914;48.886;9.394;2023-07-16T14:00:01;14.60;;;13.80;;
21505;SDS011;10914;48.886;9.394;2023-07-16T14:02:26;14.37;;;13.57;;
21505;SDS011;10914;48.886;9.394;2023-07-16T14:04:51;14.03;;;13.23;;
21505;SDS011;10914;48.886;9.394;2023-07-16T14:07:16;14.70;;;13.80;;
21505;SDS011;10914;48.886;9.394;2023-07-16T14:09:41;13.87;;;13.17;;
21505;SDS011;10914;48.886;9.394;2023-07-16T14:12:07;14.57;;;13.70;;
21505;SDS011;10914;48.886;9.394;2023-07-16T14:14:32;14.30;;;13.45;;
21505;SDS011;10914;48.886;9.394;2023-07-16T14:16:57;14.33;;;13.53;;